sensor_id;sensor_type;location;lat;lon;timestamp;temperature;humidity
33109;HTU21D;19481;51.118;6.940;2022-10-16T00:04:37;14.39;72.90
33109;HTU21D;19481;51.118;6.940;2022-10-16T00:09:40;14.35;73.01
33109;HTU21D;19481;51.118;6.940;2022-10-16T00:14:41;14.34;73.00
33109;HTU21D;19481;51.118;6.940;2022-10-16T00:19:44;14.27;73.20
33109;HTU21D;19481;51.118;6.940;2022-10-16T00:24:47;14.33;73.03
33109;HTU21D;19481;51.118;6.940;2022-10-16T00:29:49;14.25;73.15
33109;HTU21D;19481;51.118;6.940;2022-10-16T00:34:51;14.19;73.48
33109;HTU21D;19481;51.118;6.940;2022-10-16T00:39:56;14.24;73.20
33109;HTU21D;19481;51.118;6.940;2022-10-16T00:44:57;14.25;73.12
33109;HTU21D;19481;51.118;6.940;2022-10-16T00:50:02;14.23;73.10
33109;HTU21D;19481;51.118;6.940;2022-10-16T00:55:08;14.20;73.13
33109;HTU21D;19481;51.118;6.940;2022-10-16T01:00:14;14.10;73.41
33109;HTU21D;19481;51.118;6.940;2022-10-16T01:05:16;14.07;73.52
33109;HTU21D;19481;51.118;6.940;2022-10-16T01:10:27;14.04;73.51
33109;HTU21D;19481;51.118;6.940;2022-10-16T01:15:31;14.00;73.61
33109;HTU21D;19481;51.118;6.940;2022-10-16T01:20:37;13.99;73.59
33109;HTU21D;19481;51.118;6.940;2022-10-16T01:26:04;13.99;73.61
33109;HTU21D;19481;51.118;6.940;2022-10-16T01:31:13;14.06;73.28
33109;HTU21D;19481;51.118;6.940;2022-10-16T01:36:18;14.03;73.35
33109;HTU21D;19481;51.118;6.940;2022-10-16T01:41:24;14.01;73.41
33109;HTU21D;19481;51.118;6.940;2022-10-16T01:46:31;14.07;73.30
33109;HTU21D;19481;51.118;6.940;2022-10-16T01:51:33;14.07;73.35
33109;HTU21D;19481;51.118;6.940;2022-10-16T01:56:37;14.08;73.33
33109;HTU21D;19481;51.118;6.940;2022-10-16T02:01:45;14.05;73.59
33109;HTU21D;19481;51.118;6.940;2022-10-16T02:06:48;14.05;73.64
33109;HTU21D;19481;51.118;6.940;2022-10-16T02:11:51;14.01;73.67
33109;HTU21D;19481;51.118;6.940;2022-10-16T02:16:55;14.01;73.70
33109;HTU21D;19481;51.118;6.940;2022-10-16T02:21:58;14.04;73.69
33109;HTU21D;19481;51.118;6.940;2022-10-16T02:27:04;14.09;73.42
33109;HTU21D;19481;51.118;6.940;2022-10-16T02:32:10;14.12;73.39
33109;HTU21D;19481;51.118;6.940;2022-10-16T02:37:16;14.15;73.22
33109;HTU21D;19481;51.118;6.940;2022-10-16T02:42:18;14.18;73.23
33109;HTU21D;19481;51.118;6.940;2022-10-16T02:47:21;14.23;73.11
33109;HTU21D;19481;51.118;6.940;2022-10-16T02:52:22;14.22;73.10
33109;HTU21D;19481;51.118;6.940;2022-10-16T02:57:24;14.22;73.15
33109;HTU21D;19481;51.118;6.940;2022-10-16T03:02:27;14.23;73.09
33109;HTU21D;19481;51.118;6.940;2022-10-16T03:07:29;14.25;72.96
33109;HTU21D;19481;51.118;6.940;2022-10-16T03:12:32;14.25;72.87
33109;HTU21D;19481;51.118;6.940;2022-10-16T03:17:35;14.24;72.81
33109;HTU21D;19481;51.118;6.940;2022-10-16T03:22:36;14.20;72.93
33109;HTU21D;19481;51.118;6.940;2022-10-16T03:27:38;14.07;73.23
33109;HTU21D;19481;51.118;6.940;2022-10-16T03:32:41;14.05;73.30
33109;HTU21D;19481;51.118;6.940;2022-10-16T03:37:43;14.04;73.25
33109;HTU21D;19481;51.118;6.940;2022-10-16T03:42:44;14.05;73.10
33109;HTU21D;19481;51.118;6.940;2022-10-16T03:47:47;13.95;73.39
33109;HTU21D;19481;51.118;6.940;2022-10-16T03:52:49;13.91;73.43
33109;HTU21D;19481;51.118;6.940;2022-10-16T03:57:51;13.88;73.44
33109;HTU21D;19481;51.118;6.940;2022-10-16T04:02:53;13.83;73.49
33109;HTU21D;19481;51.118;6.940;2022-10-16T04:07:55;13.84;73.54
33109;HTU21D;19481;51.118;6.940;2022-10-16T04:12:57;13.84;73.56
33109;HTU21D;19481;51.118;6.940;2022-10-16T04:18:00;13.83;73.44
33109;HTU21D;19481;51.118;6.940;2022-10-16T04:23:02;13.82;73.44
33109;HTU21D;19481;51.118;6.940;2022-10-16T04:28:04;13.81;73.44
33109;HTU21D;19481;51.118;6.940;2022-10-16T04:33:08;13.77;73.40
33109;HTU21D;19481;51.118;6.940;2022-10-16T04:38:10;13.68;73.63
33109;HTU21D;19481;51.118;6.940;2022-10-16T04:43:11;13.62;73.81
33109;HTU21D;19481;51.118;6.940;2022-10-16T04:48:14;13.62;73.63
33109;HTU21D;19481;51.118;6.940;2022-10-16T04:53:17;13.54;73.80
33109;HTU21D;19481;51.118;6.940;2022-10-16T04:58:18;13.47;73.96
33109;HTU21D;19481;51.118;6.940;2022-10-16T05:03:21;13.47;73.95
33109;HTU21D;19481;51.118;6.940;2022-10-16T05:08:23;13.53;73.67
33109;HTU21D;19481;51.118;6.940;2022-10-16T05:13:25;13.49;73.79
33109;HTU21D;19481;51.118;6.940;2022-10-16T05:18:28;13.48;73.80
33109;HTU21D;19481;51.118;6.940;2022-10-16T05:23:29;13.45;73.94
33109;HTU21D;19481;51.118;6.940;2022-10-16T05:28:31;13.41;73.84
33109;HTU21D;19481;51.118;6.940;2022-10-16T05:33:34;13.20;74.26
33109;HTU21D;19481;51.118;6.940;2022-10-16T05:38:36;13.16;74.54
33109;HTU21D;19481;51.118;6.940;2022-10-16T05:43:38;13.31;74.09
33109;HTU21D;19481;51.118;6.940;2022-10-16T05:48:41;13.26;74.16
33109;HTU21D;19481;51.118;6.940;2022-10-16T05:53:43;13.32;74.14
33109;HTU21D;19481;51.118;6.940;2022-10-16T05:58:45;13.35;74.06
33109;HTU21D;19481;51.118;6.940;2022-10-16T06:03:49;13.33;74.12
33109;HTU21D;19481;51.118;6.940;2022-10-16T06:08:51;13.39;74.00
33109;HTU21D;19481;51.118;6.940;2022-10-16T06:13:54;13.44;73.84
33109;HTU21D;19481;51.118;6.940;2022-10-16T06:18:58;13.52;73.77
33109;HTU21D;19481;51.118;6.940;2022-10-16T06:24:00;13.66;73.61
33109;HTU21D;19481;51.118;6.940;2022-10-16T06:29:02;13.70;73.36
33109;HTU21D;19481;51.118;6.940;2022-10-16T06:34:05;13.81;73.25
33109;HTU21D;19481;51.118;6.940;2022-10-16T06:39:09;13.91;73.10
33109;HTU21D;19481;51.118;6.940;2022-10-16T06:44:11;14.05;72.90
33109;HTU21D;19481;51.118;6.940;2022-10-16T06:49:14;14.20;72.60
33109;HTU21D;19481;51.118;6.940;2022-10-16T06:54:21;14.42;72.25
33109;HTU21D;19481;51.118;6.940;2022-10-16T06:59:23;14.50;72.34
33109;HTU21D;19481;51.118;6.940;2022-10-16T07:04:26;14.70;71.95
33109;HTU21D;19481;51.118;6.940;2022-10-16T07:09:28;14.75;72.22
33109;HTU21D;19481;51.118;6.940;2022-10-16T07:14:29;14.84;72.18
33109;HTU21D;19481;51.118;6.940;2022-10-16T07:19:32;15.22;71.22
33109;HTU21D;19481;51.118;6.940;2022-10-16T07:24:34;15.58;70.52
33109;HTU21D;19481;51.118;6.940;2022-10-16T07:29:36;16.73;67.34
33109;HTU21D;19481;51.118;6.940;2022-10-16T07:34:39;20.44;57.22
33109;HTU21D;19481;51.118;6.940;2022-10-16T07:39:40;18.97;64.99
33109;HTU21D;19481;51.118;6.940;2022-10-16T07:44:42;19.06;65.39
33109;HTU21D;19481;51.118;6.940;2022-10-16T07:49:45;17.39;71.01
33109;HTU21D;19481;51.118;6.940;2022-10-16T07:54:46;19.08;64.78
33109;HTU21D;19481;51.118;6.940;2022-10-16T07:59:48;24.23;50.47
33109;HTU21D;19481;51.118;6.940;2022-10-16T08:04:51;24.25;48.27
33109;HTU21D;19481;51.118;6.940;2022-10-16T08:09:53;26.28;48.49
33109;HTU21D;19481;51.118;6.940;2022-10-16T08:14:56;24.95;52.34
33109;HTU21D;19481;51.118;6.940;2022-10-16T08:19:59;22.27;56.97
33109;HTU21D;19481;51.118;6.940;2022-10-16T08:25:02;22.37;60.73
33109;HTU21D;19481;51.118;6.940;2022-10-16T08:30:04;22.01;61.82
33109;HTU21D;19481;51.118;6.940;2022-10-16T08:35:08;22.29;59.25
33109;HTU21D;19481;51.118;6.940;2022-10-16T08:40:17;21.75;54.77
33109;HTU21D;19481;51.118;6.940;2022-10-16T08:45:34;22.53;49.72
33109;HTU21D;19481;51.118;6.940;2022-10-16T08:50:39;23.11;53.19
33109;HTU21D;19481;51.118;6.940;2022-10-16T08:55:43;23.46;53.71
33109;HTU21D;19481;51.118;6.940;2022-10-16T09:00:47;24.06;52.53
33109;HTU21D;19481;51.118;6.940;2022-10-16T09:06:00;23.61;43.84
33109;HTU21D;19481;51.118;6.940;2022-10-16T09:11:10;23.38;52.51
33109;HTU21D;19481;51.118;6.940;2022-10-16T09:16:19;24.39;50.55
33109;HTU21D;19481;51.118;6.940;2022-10-16T09:21:28;24.59;44.24
33109;HTU21D;19481;51.118;6.940;2022-10-16T09:26:30;24.59;51.17
33109;HTU21D;19481;51.118;6.940;2022-10-16T09:31:36;23.98;52.10
33109;HTU21D;19481;51.118;6.940;2022-10-16T09:36:42;24.83;49.28
33109;HTU21D;19481;51.118;6.940;2022-10-16T09:41:46;24.84;49.89
33109;HTU21D;19481;51.118;6.940;2022-10-16T09:46:47;24.76;42.20
33109;HTU21D;19481;51.118;6.940;2022-10-16T09:51:51;25.06;47.39
33109;HTU21D;19481;51.118;6.940;2022-10-16T09:57:04;25.45;48.27
33109;HTU21D;19481;51.118;6.940;2022-10-16T10:02:11;26.10;45.32
33109;HTU21D;19481;51.118;6.940;2022-10-16T10:07:23;25.74;45.41
33109;HTU21D;19481;51.118;6.940;2022-10-16T10:12:27;25.93;47.44
33109;HTU21D;19481;51.118;6.940;2022-10-16T10:17:30;26.56;46.20
33109;HTU21D;19481;51.118;6.940;2022-10-16T10:22:40;25.77;41.20
33109;HTU21D;19481;51.118;6.940;2022-10-16T10:27:56;25.58;37.47
33109;HTU21D;19481;51.118;6.940;2022-10-16T10:33:18;25.99;39.23
33109;HTU21D;19481;51.118;6.940;2022-10-16T10:38:32;25.32;40.57
33109;HTU21D;19481;51.118;6.940;2022-10-16T10:43:48;25.20;37.33
33109;HTU21D;19481;51.118;6.940;2022-10-16T10:54:27;25.71;44.25
33109;HTU21D;19481;51.118;6.940;2022-10-16T10:59:51;25.72;39.26
33109;HTU21D;19481;51.118;6.940;2022-10-16T11:05:21;25.17;42.69
33109;HTU21D;19481;51.118;6.940;2022-10-16T11:10:29;25.01;45.35
33109;HTU21D;19481;51.118;6.940;2022-10-16T11:15:34;25.69;43.07
33109;HTU21D;19481;51.118;6.940;2022-10-16T11:20:42;24.51;47.00
33109;HTU21D;19481;51.118;6.940;2022-10-16T11:25:47;24.62;45.21
33109;HTU21D;19481;51.118;6.940;2022-10-16T11:30:53;23.79;45.69
33109;HTU21D;19481;51.118;6.940;2022-10-16T11:36:01;23.79;47.58
33109;HTU21D;19481;51.118;6.940;2022-10-16T11:41:14;24.29;45.29
33109;HTU21D;19481;51.118;6.940;2022-10-16T11:46:20;23.92;46.83
33109;HTU21D;19481;51.118;6.940;2022-10-16T11:51:31;23.97;46.21
33109;HTU21D;19481;51.118;6.940;2022-10-16T11:56:37;23.85;46.24
33109;HTU21D;19481;51.118;6.940;2022-10-16T12:01:42;23.84;46.78
33109;HTU21D;19481;51.118;6.940;2022-10-16T12:06:47;23.40;47.59
33109;HTU21D;19481;51.118;6.940;2022-10-16T12:11:52;23.07;47.34
33109;HTU21D;19481;51.118;6.940;2022-10-16T12:16:56;23.27;47.28
33109;HTU21D;19481;51.118;6.940;2022-10-16T12:22:00;22.47;49.01
33109;HTU21D;19481;51.118;6.940;2022-10-16T12:27:05;22.51;47.93
33109;HTU21D;19481;51.118;6.940;2022-10-16T12:32:29;22.38;43.38
33109;HTU21D;19481;51.118;6.940;2022-10-16T12:37:33;22.38;46.93
33109;HTU21D;19481;51.118;6.940;2022-10-16T12:42:37;21.78;47.92
33109;HTU21D;19481;51.118;6.940;2022-10-16T12:47:48;21.93;47.52
33109;HTU21D;19481;51.118;6.940;2022-10-16T12:52:49;21.62;48.82
33109;HTU21D;19481;51.118;6.940;2022-10-16T12:58:03;21.53;45.53
33109;HTU21D;19481;51.118;6.940;2022-10-16T13:03:33;21.88;43.74
33109;HTU21D;19481;51.118;6.940;2022-10-16T13:08:51;21.70;45.22
33109;HTU21D;19481;51.118;6.940;2022-10-16T13:14:14;22.25;45.60
33109;HTU21D;19481;51.118;6.940;2022-10-16T13:19:25;22.01;45.41
33109;HTU21D;19481;51.118;6.940;2022-10-16T13:24:42;21.95;41.95
33109;HTU21D;19481;51.118;6.940;2022-10-16T13:29:52;21.77;43.46
33109;HTU21D;19481;51.118;6.940;2022-10-16T13:34:55;21.96;46.64
33109;HTU21D;19481;51.118;6.940;2022-10-16T13:40:09;21.40;43.55
33109;HTU21D;19481;51.118;6.940;2022-10-16T13:45:23;21.44;46.24
33109;HTU21D;19481;51.118;6.940;2022-10-16T13:50:25;21.61;47.47
33109;HTU21D;19481;51.118;6.940;2022-10-16T13:55:27;21.33;48.05
33109;HTU21D;19481;51.118;6.940;2022-10-16T14:00:30;22.04;45.73
33109;HTU21D;19481;51.118;6.940;2022-10-16T14:05:32;21.43;47.57
33109;HTU21D;19481;51.118;6.940;2022-10-16T14:10:33;21.09;48.44
33109;HTU21D;19481;51.118;6.940;2022-10-16T14:15:37;21.00;48.42
33109;HTU21D;19481;51.118;6.940;2022-10-16T14:20:38;21.22;47.80
33109;HTU21D;19481;51.118;6.940;2022-10-16T14:25:40;21.25;48.02
33109;HTU21D;19481;51.118;6.940;2022-10-16T14:30:51;21.18;46.14
33109;HTU21D;19481;51.118;6.940;2022-10-16T14:36:02;21.06;47.40
33109;HTU21D;19481;51.118;6.940;2022-10-16T14:41:05;21.18;48.20
33109;HTU21D;19481;51.118;6.940;2022-10-16T14:46:12;20.91;46.60
33109;HTU21D;19481;51.118;6.940;2022-10-16T14:51:14;20.65;45.50
33109;HTU21D;19481;51.118;6.940;2022-10-16T14:56:18;20.81;49.05
33109;HTU21D;19481;51.118;6.940;2022-10-16T15:01:22;20.79;49.07
33109;HTU21D;19481;51.118;6.940;2022-10-16T15:06:23;20.65;49.50
33109;HTU21D;19481;51.118;6.940;2022-10-16T15:11:25;20.48;49.85
33109;HTU21D;19481;51.118;6.940;2022-10-16T15:16:28;20.36;49.98
33109;HTU21D;19481;51.118;6.940;2022-10-16T15:21:32;20.30;50.17
33109;HTU21D;19481;51.118;6.940;2022-10-16T15:26:34;20.26;50.40
33109;HTU21D;19481;51.118;6.940;2022-10-16T15:31:37;20.18;50.56
33109;HTU21D;19481;51.118;6.940;2022-10-16T15:36:39;20.02;50.96
33109;HTU21D;19481;51.118;6.940;2022-10-16T15:41:42;19.94;51.28
33109;HTU21D;19481;51.118;6.940;2022-10-16T15:46:46;19.63;51.97
33109;HTU21D;19481;51.118;6.940;2022-10-16T15:51:48;19.53;52.11
33109;HTU21D;19481;51.118;6.940;2022-10-16T15:56:49;19.44;52.25
33109;HTU21D;19481;51.118;6.940;2022-10-16T16:01:52;19.36;52.47
33109;HTU21D;19481;51.118;6.940;2022-10-16T16:06:54;19.22;52.83
33109;HTU21D;19481;51.118;6.940;2022-10-16T16:11:55;19.18;52.94
33109;HTU21D;19481;51.118;6.940;2022-10-16T16:17:02;19.17;53.24
33109;HTU21D;19481;51.118;6.940;2022-10-16T16:22:03;19.01;53.58
33109;HTU21D;19481;51.118;6.940;2022-10-16T16:27:05;18.96;53.84
33109;HTU21D;19481;51.118;6.940;2022-10-16T16:32:08;18.89;54.23
33109;HTU21D;19481;51.118;6.940;2022-10-16T16:37:10;18.81;54.52
33109;HTU21D;19481;51.118;6.940;2022-10-16T16:42:12;18.78;54.71
33109;HTU21D;19481;51.118;6.940;2022-10-16T16:47:15;18.72;55.09
33109;HTU21D;19481;51.118;6.940;2022-10-16T16:52:17;18.64;55.52
33109;HTU21D;19481;51.118;6.940;2022-10-16T16:57:19;18.64;55.69
33109;HTU21D;19481;51.118;6.940;2022-10-16T17:02:22;18.55;56.07
33109;HTU21D;19481;51.118;6.940;2022-10-16T17:07:24;18.56;56.13
33109;HTU21D;19481;51.118;6.940;2022-10-16T17:12:28;18.54;56.48
33109;HTU21D;19481;51.118;6.940;2022-10-16T17:17:31;18.55;56.62
33109;HTU21D;19481;51.118;6.940;2022-10-16T17:22:33;18.57;56.82
33109;HTU21D;19481;51.118;6.940;2022-10-16T17:27:34;18.58;56.95
33109;HTU21D;19481;51.118;6.940;2022-10-16T17:32:37;18.59;57.24
33109;HTU21D;19481;51.118;6.940;2022-10-16T17:37:39;18.59;57.30
33109;HTU21D;19481;51.118;6.940;2022-10-16T17:42:41;18.61;57.51
33109;HTU21D;19481;51.118;6.940;2022-10-16T17:47:44;18.59;58.00
33109;HTU21D;19481;51.118;6.940;2022-10-16T17:52:46;18.55;58.78
33109;HTU21D;19481;51.118;6.940;2022-10-16T17:57:48;18.53;59.05
33109;HTU21D;19481;51.118;6.940;2022-10-16T18:02:54;18.53;58.53
33109;HTU21D;19481;51.118;6.940;2022-10-16T18:07:55;18.52;58.70
33109;HTU21D;19481;51.118;6.940;2022-10-16T18:12:57;18.35;60.36
33109;HTU21D;19481;51.118;6.940;2022-10-16T18:18:00;18.19;61.05
33109;HTU21D;19481;51.118;6.940;2022-10-16T18:23:01;18.11;60.83
33109;HTU21D;19481;51.118;6.940;2022-10-16T18:28:03;18.10;60.99
33109;HTU21D;19481;51.118;6.940;2022-10-16T18:33:07;18.08;61.25
33109;HTU21D;19481;51.118;6.940;2022-10-16T18:38:08;18.09;61.30
33109;HTU21D;19481;51.118;6.940;2022-10-16T18:43:10;18.10;61.28
33109;HTU21D;19481;51.118;6.940;2022-10-16T18:48:13;18.10;61.45
33109;HTU21D;19481;51.118;6.940;2022-10-16T18:53:15;18.12;61.50
33109;HTU21D;19481;51.118;6.940;2022-10-16T18:58:17;18.14;61.46
33109;HTU21D;19481;51.118;6.940;2022-10-16T19:03:20;18.21;61.48
33109;HTU21D;19481;51.118;6.940;2022-10-16T19:08:21;18.17;61.70
33109;HTU21D;19481;51.118;6.940;2022-10-16T19:13:23;18.21;61.73
33109;HTU21D;19481;51.118;6.940;2022-10-16T19:18:26;18.24;61.86
33109;HTU21D;19481;51.118;6.940;2022-10-16T19:23:28;18.25;61.89
33109;HTU21D;19481;51.118;6.940;2022-10-16T19:28:30;18.23;62.07
33109;HTU21D;19481;51.118;6.940;2022-10-16T19:33:33;18.23;62.12
33109;HTU21D;19481;51.118;6.940;2022-10-16T19:38:35;18.14;62.66
33109;HTU21D;19481;51.118;6.940;2022-10-16T19:43:37;18.15;62.82
33109;HTU21D;19481;51.118;6.940;2022-10-16T19:48:40;18.11;63.11
33109;HTU21D;19481;51.118;6.940;2022-10-16T19:53:43;18.04;63.33
33109;HTU21D;19481;51.118;6.940;2022-10-16T19:58:45;17.95;63.61
33109;HTU21D;19481;51.118;6.940;2022-10-16T20:03:48;17.92;63.59
33109;HTU21D;19481;51.118;6.940;2022-10-16T20:08:51;17.95;63.34
33109;HTU21D;19481;51.118;6.940;2022-10-16T20:13:53;17.95;63.29
33109;HTU21D;19481;51.118;6.940;2022-10-16T20:18:56;17.91;63.50
33109;HTU21D;19481;51.118;6.940;2022-10-16T20:23:59;17.82;63.67
33109;HTU21D;19481;51.118;6.940;2022-10-16T20:29:02;17.82;63.62
33109;HTU21D;19481;51.118;6.940;2022-10-16T20:34:09;17.77;63.95
33109;HTU21D;19481;51.118;6.940;2022-10-16T20:39:12;17.75;63.98
33109;HTU21D;19481;51.118;6.940;2022-10-16T20:44:14;17.70;64.08
33109;HTU21D;19481;51.118;6.940;2022-10-16T20:49:16;17.69;64.20
33109;HTU21D;19481;51.118;6.940;2022-10-16T20:54:18;17.69;64.21
33109;HTU21D;19481;51.118;6.940;2022-10-16T20:59:20;17.61;64.53
33109;HTU21D;19481;51.118;6.940;2022-10-16T21:04:23;17.45;65.10
33109;HTU21D;19481;51.118;6.940;2022-10-16T21:09:24;17.34;65.41
33109;HTU21D;19481;51.118;6.940;2022-10-16T21:14:26;17.11;66.21
33109;HTU21D;19481;51.118;6.940;2022-10-16T21:19:29;16.89;66.89
33109;HTU21D;19481;51.118;6.940;2022-10-16T21:24:31;16.85;66.91
33109;HTU21D;19481;51.118;6.940;2022-10-16T21:29:32;16.81;66.85
33109;HTU21D;19481;51.118;6.940;2022-10-16T21:34:35;16.79;66.68
33109;HTU21D;19481;51.118;6.940;2022-10-16T21:39:37;16.72;66.78
33109;HTU21D;19481;51.118;6.940;2022-10-16T21:44:39;16.60;67.04
33109;HTU21D;19481;51.118;6.940;2022-10-16T21:49:42;16.40;67.50
33109;HTU21D;19481;51.118;6.940;2022-10-16T21:54:43;16.42;67.52
33109;HTU21D;19481;51.118;6.940;2022-10-16T21:59:45;16.32;67.84
33109;HTU21D;19481;51.118;6.940;2022-10-16T22:04:48;16.24;67.98
33109;HTU21D;19481;51.118;6.940;2022-10-16T22:09:50;16.28;67.91
33109;HTU21D;19481;51.118;6.940;2022-10-16T22:14:51;16.31;67.84
33109;HTU21D;19481;51.118;6.940;2022-10-16T22:19:54;16.33;67.81
33109;HTU21D;19481;51.118;6.940;2022-10-16T22:24:56;16.35;67.78
33109;HTU21D;19481;51.118;6.940;2022-10-16T22:29:57;16.41;67.80
33109;HTU21D;19481;51.118;6.940;2022-10-16T22:35:00;16.41;68.00
33109;HTU21D;19481;51.118;6.940;2022-10-16T22:40:02;16.39;68.07
33109;HTU21D;19481;51.118;6.940;2022-10-16T22:45:04;16.43;68.26
33109;HTU21D;19481;51.118;6.940;2022-10-16T22:50:08;16.43;68.39
33109;HTU21D;19481;51.118;6.940;2022-10-16T22:55:09;16.50;68.35
33109;HTU21D;19481;51.118;6.940;2022-10-16T23:00:14;16.55;68.36
33109;HTU21D;19481;51.118;6.940;2022-10-16T23:05:18;16.71;68.08
33109;HTU21D;19481;51.118;6.940;2022-10-16T23:10:19;16.70;68.52
33109;HTU21D;19481;51.118;6.940;2022-10-16T23:15:24;16.73;68.62
33109;HTU21D;19481;51.118;6.940;2022-10-16T23:20:27;16.72;68.67
33109;HTU21D;19481;51.118;6.940;2022-10-16T23:25:28;16.72;68.68
33109;HTU21D;19481;51.118;6.940;2022-10-16T23:30:31;16.73;68.74
33109;HTU21D;19481;51.118;6.940;2022-10-16T23:35:38;16.78;69.29
33109;HTU21D;19481;51.118;6.940;2022-10-16T23:40:39;16.77;69.04
33109;HTU21D;19481;51.118;6.940;2022-10-16T23:45:41;16.77;69.08
33109;HTU21D;19481;51.118;6.940;2022-10-16T23:50:44;16.75;69.96
33109;HTU21D;19481;51.118;6.940;2022-10-16T23:55:46;16.78;69.61
